createdAt,value
2023-01-05T00:01:45.707Z,98998.31
2023-01-05T00:07:08.533Z,98998.31
2023-01-05T00:12:48.686Z,98982.59
2023-01-05T00:18:39.007Z,98972.97
2023-01-05T00:24:00.824Z,98985.31
2023-01-05T00:29:22.712Z,98997.63
2023-01-05T00:34:44.501Z,98988.78
2023-01-05T00:40:11.062Z,98977.13
2023-01-05T00:45:32.973Z,98972.41
2023-01-05T00:50:54.809Z,98970.94
2023-01-05T00:56:16.515Z,98973.41
2023-01-05T01:01:38.356Z,98981.41
2023-01-05T01:07:00.491Z,98985.50
2023-01-05T01:12:22.244Z,98988.94
2023-01-05T01:17:44.007Z,98993.16
2023-01-05T01:23:05.774Z,99001.09
2023-01-05T01:28:27.467Z,98988.88
2023-01-05T01:33:49.603Z,98964.78
2023-01-05T01:39:12.459Z,98957.34
2023-01-05T01:44:58.639Z,98967.22
2023-01-05T01:50:36.305Z,98973.16
2023-01-05T01:56:02.540Z,98962.56
2023-01-05T02:01:24.496Z,98965.31
2023-01-05T02:06:46.423Z,98971.63
2023-01-05T02:12:29.930Z,98960.66
2023-01-05T02:18:07.450Z,98956.50
2023-01-05T02:23:59.846Z,98944.25
2023-01-05T02:29:28.648Z,98945.97
2023-01-05T02:34:56.228Z,98937.91
2023-01-05T02:40:24.752Z,98931.91
2023-01-05T02:45:47.448Z,98919.41
2023-01-05T02:51:16.254Z,98938.88
2023-01-05T02:57:06.432Z,98939.44
2023-01-05T03:02:31.358Z,98931.16
2023-01-05T03:08:06.820Z,98934.78
2023-01-05T03:13:43.852Z,98931.09
2023-01-05T03:19:30.039Z,98934.66
2023-01-05T03:25:11.046Z,98942.84
2023-01-05T03:30:59.371Z,98953.63
2023-01-05T03:36:25.732Z,98938.25
2023-01-05T03:41:48.411Z,98929.66
2023-01-05T03:47:10.218Z,98939.69
2023-01-05T03:52:32.213Z,98940.53
2023-01-05T03:57:54.992Z,98935.88
2023-01-05T04:03:16.794Z,98934.97
2023-01-05T04:08:38.574Z,98934.84
2023-01-05T04:14:00.288Z,98936.63
2023-01-05T04:19:22.029Z,98943.41
2023-01-05T04:24:43.750Z,98940.19
2023-01-05T04:30:06.461Z,98937.47
2023-01-05T04:35:28.206Z,98929.72
2023-01-05T04:40:51.177Z,98917.41
2023-01-05T04:46:12.977Z,98934.59
2023-01-05T04:51:34.735Z,98928.44
2023-01-05T04:56:56.462Z,98935.38
2023-01-05T05:02:18.328Z,98940.53
2023-01-05T05:07:40.175Z,98940.91
2023-01-05T05:13:01.911Z,98943.38
2023-01-05T05:18:24.526Z,98957.31
2023-01-05T05:23:46.299Z,98959.16
2023-01-05T05:29:08.192Z,98974.88
2023-01-05T05:34:29.903Z,98990.03
2023-01-05T05:39:51.641Z,99007.34
2023-01-05T05:45:13.345Z,99004.47
2023-01-05T05:50:35.086Z,99025.78
2023-01-05T05:55:56.851Z,99012.84
2023-01-05T06:01:18.656Z,99033.88
2023-01-05T06:06:40.564Z,99044.72
2023-01-05T06:12:02.346Z,99045.88
2023-01-05T06:17:24.103Z,99063.69
2023-01-05T06:22:45.879Z,99061.50
2023-01-05T06:28:07.711Z,99073.75
2023-01-05T06:33:29.561Z,99085.28
2023-01-05T06:38:51.257Z,99098.38
2023-01-05T06:44:12.949Z,99111.97
2023-01-05T06:49:34.673Z,99113.81
2023-01-05T06:54:56.394Z,99125.28
2023-01-05T07:00:18.455Z,99120.53
2023-01-05T07:05:40.961Z,99129.50
2023-01-05T07:11:02.721Z,99130.41
2023-01-05T07:16:24.578Z,99125.69
2023-01-05T07:21:49.337Z,99132.81
2023-01-05T07:27:13.631Z,99132.19
2023-01-05T07:32:35.549Z,99135.63
2023-01-05T07:37:57.403Z,99134.41
2023-01-05T07:43:19.108Z,99147.75
2023-01-05T07:48:41.541Z,99144.53
2023-01-05T07:54:03.256Z,99143.25
2023-01-05T07:59:25.048Z,99158.28
2023-01-05T08:04:47.019Z,99171.91
2023-01-05T08:10:28.547Z,99175.63
2023-01-05T08:15:51.926Z,99185.16
2023-01-05T08:21:14.192Z,99184.25
2023-01-05T08:26:36.058Z,99192.09
2023-01-05T08:31:57.930Z,99200.56
2023-01-05T08:37:19.722Z,99203.78
2023-01-05T08:42:41.546Z,99207.41
2023-01-05T08:48:03.521Z,99212.41
2023-01-05T08:53:25.229Z,99206.16
2023-01-05T08:58:47.660Z,99208.78
2023-01-05T09:04:09.554Z,99221.78
2023-01-05T09:09:32.380Z,99233.19
2023-01-05T09:14:54.800Z,99241.03
2023-01-05T09:20:16.528Z,99244.44
2023-01-05T09:25:38.769Z,99255.84
2023-01-05T09:31:06.708Z,99259.25
2023-01-05T09:36:28.475Z,99278.34
2023-01-05T09:41:56.175Z,99269.72
2023-01-05T09:47:32.386Z,99276.63
2023-01-05T09:52:57.742Z,99287.69
2023-01-05T09:58:29.660Z,99296.75
2023-01-05T10:04:04.123Z,99299.44
2023-01-05T10:09:34.665Z,99293.53
2023-01-05T10:15:04.425Z,99292.34
2023-01-05T10:20:45.326Z,99294.72
2023-01-05T10:27:23.108Z,99290.56
2023-01-05T10:33:25.860Z,99287.13
2023-01-05T10:39:02.296Z,99284.97
2023-01-05T10:44:59.065Z,99283.84
2023-01-05T10:50:40.971Z,99288.94
2023-01-05T10:56:16.103Z,99274.00
2023-01-05T11:01:43.026Z,99275.16
2023-01-05T11:07:06.870Z,99274.13
2023-01-05T11:12:28.727Z,99274.84
2023-01-05T11:17:51.372Z,99271.97
2023-01-05T11:23:37.395Z,99288.47
2023-01-05T11:29:03.664Z,99284.00
2023-01-05T11:34:37.394Z,99283.31
2023-01-05T11:40:04.800Z,99291.69
2023-01-05T11:45:33.577Z,99283.13
2023-01-05T11:50:57.259Z,99275.38
2023-01-05T11:56:24.231Z,99280.75
2023-01-05T12:02:07.788Z,99269.38
2023-01-05T12:07:34.329Z,99273.03
2023-01-05T12:13:17.722Z,99271.50
2023-01-05T12:18:47.540Z,99266.41
2023-01-05T12:24:28.179Z,99277.59
2023-01-05T12:36:14.163Z,99271.31
2023-01-05T12:41:53.749Z,99286.28
2023-01-05T12:47:36.968Z,99294.75
2023-01-05T12:53:11.767Z,99297.47
2023-01-05T12:58:40.527Z,99290.69
2023-01-05T13:04:46.838Z,99292.22
2023-01-05T13:10:24.022Z,99293.63
2023-01-05T13:16:13.168Z,99289.41
2023-01-05T13:21:38.099Z,99280.91
2023-01-05T13:27:01.796Z,99279.81
2023-01-05T13:32:54.610Z,99279.69
2023-01-05T13:38:43.708Z,99285.91
2023-01-05T13:44:17.692Z,99293.53
2023-01-05T13:50:01.088Z,99300.53
2023-01-05T13:55:26.496Z,99298.94
2023-01-05T14:00:52.422Z,99309.09
2023-01-05T14:06:18.593Z,99297.09
2023-01-05T14:12:09.201Z,99310.19
2023-01-05T14:17:53.023Z,99306.03
2023-01-05T14:23:23.911Z,99313.91
2023-01-05T14:28:46.853Z,99319.50
2023-01-05T14:34:16.165Z,99326.44
2023-01-05T14:39:43.111Z,99333.94
2023-01-05T14:45:07.723Z,99328.75
2023-01-05T14:50:41.562Z,99326.88
2023-01-05T14:56:06.160Z,99338.38
2023-01-05T15:07:41.726Z,99332.56
2023-01-05T15:13:27.786Z,99335.47
2023-01-05T15:18:49.464Z,99337.63
2023-01-05T15:24:38.627Z,99334.25
2023-01-05T15:30:18.906Z,99328.31
2023-01-05T15:35:55.101Z,99326.66
2023-01-05T15:41:19.874Z,99336.97
2023-01-05T15:46:42.439Z,99339.09
2023-01-05T15:52:04.721Z,99348.75
2023-01-05T15:57:26.779Z,99340.09
2023-01-05T16:02:48.499Z,99337.19
2023-01-05T16:08:15.980Z,99348.75
2023-01-05T16:13:50.169Z,99333.66
2023-01-05T16:19:42.899Z,99338.06
2023-01-05T16:25:23.493Z,99348.66
2023-01-05T16:30:47.700Z,99355.59
2023-01-05T16:36:10.124Z,99359.84
2023-01-05T16:41:51.809Z,99363.31
2023-01-05T16:47:16.950Z,99367.63
2023-01-05T16:52:46.247Z,99359.78
2023-01-05T16:58:30.045Z,99358.06
2023-01-05T17:03:51.958Z,99357.38
2023-01-05T17:09:21.729Z,99361.38
2023-01-05T17:14:45.584Z,99354.13
2023-01-05T17:20:11.166Z,99344.91
2023-01-05T17:25:34.022Z,99347.75
2023-01-05T17:30:55.874Z,99332.09
2023-01-05T17:36:20.092Z,99329.03
2023-01-05T17:41:41.912Z,99335.06
2023-01-05T17:47:04.840Z,99329.72
2023-01-05T17:52:26.547Z,99339.59
2023-01-05T17:57:48.974Z,99338.41
2023-01-05T18:03:15.598Z,99322.69
2023-01-05T18:08:38.208Z,99334.63
2023-01-05T18:13:59.948Z,99326.31
2023-01-05T18:19:21.712Z,99322.53
2023-01-05T18:24:43.943Z,99325.28
2023-01-05T18:30:06.914Z,99315.91
2023-01-05T18:35:28.640Z,99311.81
2023-01-05T18:40:50.503Z,99318.97
2023-01-05T18:46:12.261Z,99310.81
2023-01-05T18:51:34.166Z,99304.50
2023-01-05T18:56:55.895Z,99306.75
2023-01-05T19:02:17.790Z,99308.06
2023-01-05T19:07:39.852Z,99306.06
2023-01-05T19:13:01.727Z,99306.47
2023-01-05T19:18:24.332Z,99300.22
2023-01-05T19:23:46.054Z,99301.31
2023-01-05T19:29:07.860Z,99303.31
2023-01-05T19:34:29.637Z,99301.94
2023-01-05T19:39:51.406Z,99302.38
2023-01-05T19:45:13.233Z,99300.81
2023-01-05T19:50:34.976Z,99301.66
2023-01-05T19:56:02.937Z,99293.75
2023-01-05T20:01:26.328Z,99301.59
2023-01-05T20:06:48.167Z,99290.41
2023-01-05T20:12:14.719Z,99298.88
2023-01-05T20:17:37.358Z,99294.19
2023-01-05T20:22:59.151Z,99287.44
2023-01-05T20:28:21.215Z,99291.59
2023-01-05T20:33:43.066Z,99294.13
2023-01-05T20:39:07.181Z,99300.06
2023-01-05T20:44:28.947Z,99294.84
2023-01-05T20:49:50.726Z,99282.69
2023-01-05T20:55:12.654Z,99280.75
2023-01-05T21:00:34.422Z,99279.97
2023-01-05T21:06:17.844Z,99285.06
2023-01-05T21:11:40.763Z,99287.66
2023-01-05T21:17:02.584Z,99287.13
2023-01-05T21:22:24.301Z,99289.28
2023-01-05T21:27:46.000Z,99291.25
2023-01-05T21:33:08.015Z,99291.25
2023-01-05T21:39:01.080Z,99290.81
2023-01-05T21:44:12.934Z,99277.94
2023-01-05T21:49:35.650Z,99279.09
2023-01-05T21:55:15.911Z,99280.00
2023-01-05T22:00:37.811Z,99257.00
2023-01-05T22:05:59.541Z,99253.41
2023-01-05T22:11:21.261Z,99258.00
2023-01-05T22:16:43.013Z,99251.06
2023-01-05T22:22:04.877Z,99245.38
2023-01-05T22:27:26.575Z,99247.22
2023-01-05T22:32:48.956Z,99255.84
2023-01-05T22:38:10.712Z,99253.00
2023-01-05T22:43:32.855Z,99255.72
2023-01-05T22:48:55.884Z,99256.16
2023-01-05T22:54:17.759Z,99250.94
2023-01-05T22:59:39.498Z,99246.63
2023-01-05T23:05:03.142Z,99236.47
2023-01-05T23:10:27.607Z,99236.59
2023-01-05T23:15:53.633Z,99227.69
2023-01-05T23:21:17.015Z,99226.78
2023-01-05T23:26:39.461Z,99229.53
2023-01-05T23:32:01.941Z,99218.91
2023-01-05T23:37:23.670Z,99206.56
2023-01-05T23:42:46.422Z,99209.41
2023-01-05T23:48:08.575Z,99213.38
2023-01-05T23:53:30.589Z,99199.41
2023-01-05T23:58:58.934Z,99194.13
